Time;durP1;ratioP1;P1;durP2;ratioP2;P2;SDS_P1;SDS_P2;PMS_P1;PMS_P2;Temp;Humidity;BMP_temperature;BMP_pressure;BME280_temperature;BME280_humidity;BME280_pressure;Samples;Min_cycle;Max_cycle;Signal;HPM_P1;HPM_P2
2020/12/11 00:02:23;;;;;;;46.85;27.60;;;5.90;99.90;;;;;;5053166;28;20025;-71
2020/12/11 00:04:49;;;;;;;42.40;25.27;;;5.90;99.90;;;;;;5055470;28;20047;-72
2020/12/11 00:07:14;;;;;;;44.22;26.35;;;5.90;99.90;;;;;;5056910;28;20040;-71
2020/12/11 00:09:40;;;;;;;41.30;26.73;;;5.80;99.90;;;;;;5058924;28;20107;-71
2020/12/11 00:12:06;;;;;;;44.78;26.52;;;5.80;99.90;;;;;;5055462;28;20037;-72
2020/12/11 00:14:31;;;;;;;43.55;26.42;;;5.90;99.90;;;;;;5056494;28;20036;-71
2020/12/11 00:16:57;;;;;;;43.35;26.90;;;5.90;99.90;;;;;;5056997;28;20409;-71
2020/12/11 00:19:22;;;;;;;49.38;28.20;;;6.00;99.90;;;;;;5054303;28;20426;-71
2020/12/11 00:21:49;;;;;;;38.35;24.67;;;6.00;99.90;;;;;;5056151;28;20485;-71
2020/12/11 00:24:15;;;;;;;42.67;25.67;;;6.00;99.90;;;;;;5061371;28;20024;-72
2020/12/11 00:26:40;;;;;;;42.08;26.02;;;5.90;99.90;;;;;;5058385;28;20021;-75
2020/12/11 00:29:06;;;;;;;46.95;26.40;;;5.80;99.90;;;;;;5048030;28;20036;-72
2020/12/11 00:31:32;;;;;;;44.47;26.45;;;5.80;99.90;;;;;;5056315;28;20106;-72
2020/12/11 00:33:57;;;;;;;46.08;26.67;;;5.80;99.90;;;;;;5054778;28;20068;-72
2020/12/11 00:36:26;;;;;;;44.17;26.77;;;5.90;99.90;;;;;;5055283;28;20505;-72
2020/12/11 00:38:52;;;;;;;41.63;25.07;;;5.90;99.90;;;;;;5057594;28;20033;-71
2020/12/11 00:41:19;;;;;;;44.80;25.27;;;5.90;99.90;;;;;;5056463;28;20037;-71
2020/12/11 00:43:45;;;;;;;43.03;26.35;;;6.00;99.90;;;;;;5053806;28;20103;-71
2020/12/11 00:46:12;;;;;;;41.35;25.70;;;6.00;99.90;;;;;;5058461;28;20067;-71
2020/12/11 00:48:37;;;;;;;48.55;27.77;;;6.10;99.90;;;;;;5054146;28;20078;-71
2020/12/11 00:51:03;;;;;;;42.85;25.50;;;6.10;99.90;;;;;;5054660;28;20025;-71
2020/12/11 00:53:29;;;;;;;43.28;25.83;;;6.10;99.90;;;;;;5058204;28;20028;-71
2020/12/11 00:55:55;;;;;;;42.03;26.75;;;6.10;99.90;;;;;;5056685;28;20025;-71
2020/12/11 00:58:21;;;;;;;43.13;26.08;;;6.10;99.90;;;;;;5055768;28;20021;-71
2020/12/11 01:00:46;;;;;;;43.00;25.40;;;6.00;99.90;;;;;;5046105;28;20035;-71
2020/12/11 01:03:12;;;;;;;40.05;24.92;;;5.90;99.90;;;;;;5033465;28;20053;-72
2020/12/11 01:05:38;;;;;;;40.60;24.10;;;5.80;99.90;;;;;;5034482;28;20030;-72
2020/12/11 01:08:04;;;;;;;37.70;24.63;;;5.70;99.90;;;;;;5035390;28;20107;-72
2020/12/11 01:10:30;;;;;;;39.20;24.42;;;5.60;99.90;;;;;;5057906;28;20021;-72
2020/12/11 01:12:56;;;;;;;39.72;24.13;;;5.50;99.90;;;;;;5056528;28;20029;-71
2020/12/11 01:15:22;;;;;;;38.00;23.77;;;5.50;99.90;;;;;;5054645;28;20076;-71
2020/12/11 01:17:48;;;;;;;37.15;24.17;;;5.40;99.90;;;;;;5058439;28;20394;-72
2020/12/11 01:20:13;;;;;;;36.45;23.63;;;5.40;99.90;;;;;;5052562;28;20513;-71
2020/12/11 01:22:39;;;;;;;37.25;23.65;;;5.40;99.90;;;;;;5053944;28;20033;-72
2020/12/11 01:25:05;;;;;;;33.35;22.38;;;5.30;99.90;;;;;;5055891;28;20021;-72
2020/12/11 01:27:30;;;;;;;36.58;24.05;;;5.20;99.90;;;;;;5055128;28;20364;-72
2020/12/11 01:29:56;;;;;;;37.75;24.00;;;5.20;99.90;;;;;;5053741;28;20055;-71
2020/12/11 01:32:21;;;;;;;37.50;23.85;;;5.10;99.90;;;;;;5057050;28;20029;-72
2020/12/11 01:34:47;;;;;;;38.53;26.63;;;5.10;99.90;;;;;;5054355;28;20458;-71
2020/12/11 01:37:13;;;;;;;40.60;26.02;;;5.20;99.90;;;;;;5053161;28;20036;-71
2020/12/11 01:39:39;;;;;;;39.40;26.13;;;5.40;99.90;;;;;;5047715;28;20021;-72
2020/12/11 01:42:11;;;;;;;38.72;24.65;;;5.40;99.90;;;;;;5033416;28;20060;-71
2020/12/11 01:44:46;;;;;;;40.00;24.60;;;5.40;99.90;;;;;;5035856;28;20401;-71
2020/12/11 01:47:11;;;;;;;40.28;24.88;;;5.40;99.90;;;;;;5051342;28;20037;-71
2020/12/11 01:49:37;;;;;;;38.50;24.13;;;5.40;99.90;;;;;;5054824;28;20025;-71
2020/12/11 01:52:02;;;;;;;35.08;24.05;;;5.40;99.90;;;;;;5054234;28;20021;-72
2020/12/11 01:54:28;;;;;;;37.60;23.58;;;5.40;99.90;;;;;;5057668;28;20035;-72
2020/12/11 01:57:03;;;;;;;39.22;24.58;;;5.40;99.90;;;;;;5059181;28;20017;-71
2020/12/11 01:59:40;;;;;;;37.50;24.58;;;5.40;99.90;;;;;;5057720;28;20041;-71
2020/12/11 02:02:08;;;;;;;39.80;25.42;;;5.40;99.90;;;;;;5041797;28;20021;-72
2020/12/11 02:04:34;;;;;;;37.38;25.33;;;5.30;99.90;;;;;;5041658;28;20104;-71
2020/12/11 02:07:00;;;;;;;38.75;24.15;;;5.30;99.90;;;;;;5039720;28;20387;-71
2020/12/11 02:09:26;;;;;;;40.17;25.10;;;5.30;99.90;;;;;;5042687;28;20443;-71
2020/12/11 02:11:54;;;;;;;38.92;25.80;;;5.20;99.90;;;;;;5058492;28;20013;-72
2020/12/11 02:14:20;;;;;;;35.13;24.52;;;5.30;99.90;;;;;;5058525;28;20043;-71
2020/12/11 02:16:46;;;;;;;30.92;20.50;;;5.30;99.90;;;;;;5060373;28;20103;-71
2020/12/11 02:19:12;;;;;;;27.92;19.92;;;5.20;99.90;;;;;;5061738;28;20471;-71
2020/12/11 02:21:38;;;;;;;31.30;20.10;;;5.10;99.90;;;;;;5058078;28;20028;-71
2020/12/11 02:24:04;;;;;;;32.22;21.35;;;5.00;99.90;;;;;;5058657;28;20024;-71
2020/12/11 02:26:29;;;;;;;34.55;22.90;;;5.00;99.90;;;;;;5059904;28;20017;-72
2020/12/11 02:28:55;;;;;;;32.85;21.23;;;5.00;99.90;;;;;;5056937;28;20032;-71
2020/12/11 02:31:20;;;;;;;34.03;21.20;;;4.90;99.90;;;;;;5039957;28;20034;-71
2020/12/11 02:33:46;;;;;;;33.58;21.00;;;4.90;99.90;;;;;;5024735;28;20017;-71
2020/12/11 02:36:12;;;;;;;34.35;22.80;;;4.90;99.90;;;;;;5036271;28;20025;-72
2020/12/11 02:38:37;;;;;;;31.75;20.70;;;4.80;99.90;;;;;;5037036;28;20021;-71
2020/12/11 02:41:03;;;;;;;32.30;22.55;;;4.80;99.90;;;;;;5059766;28;20057;-72
2020/12/11 02:43:37;;;;;;;37.78;24.33;;;4.80;99.90;;;;;;5057099;28;20067;-72
2020/12/11 02:46:03;;;;;;;36.70;23.98;;;4.80;99.90;;;;;;5057591;28;20029;-71
2020/12/11 02:48:29;;;;;;;32.97;22.55;;;4.80;99.90;;;;;;5058241;28;20462;-72
2020/12/11 02:50:57;;;;;;;36.53;24.13;;;4.70;99.90;;;;;;5047393;28;20582;-72
2020/12/11 02:53:23;;;;;;;39.47;26.02;;;4.70;99.90;;;;;;5037238;28;20037;-71
2020/12/11 02:55:48;;;;;;;36.85;23.67;;;4.70;99.90;;;;;;5037655;28;20052;-72
2020/12/11 02:58:14;;;;;;;41.20;26.15;;;4.70;99.90;;;;;;5054862;28;20025;-72
2020/12/11 03:00:40;;;;;;;40.70;25.60;;;4.80;99.90;;;;;;5055653;28;20078;-71
2020/12/11 03:03:05;;;;;;;41.17;26.83;;;4.80;99.90;;;;;;5056485;28;20111;-71
2020/12/11 03:05:31;;;;;;;31.10;21.08;;;4.90;99.90;;;;;;5060499;28;20025;-71
2020/12/11 03:07:56;;;;;;;38.72;23.88;;;4.80;99.90;;;;;;5059360;28;20049;-72
2020/12/11 03:10:22;;;;;;;36.92;25.77;;;4.80;99.90;;;;;;5056989;28;20070;-72
2020/12/11 03:12:48;;;;;;;33.47;23.15;;;4.70;99.90;;;;;;5056674;28;20218;-71
2020/12/11 03:15:13;;;;;;;35.22;21.17;;;4.70;99.90;;;;;;5057994;28;20029;-71
2020/12/11 03:17:39;;;;;;;32.58;21.90;;;4.70;99.90;;;;;;5038381;28;20116;-72
2020/12/11 03:20:05;;;;;;;34.08;23.25;;;4.60;99.90;;;;;;5047455;28;20032;-71
2020/12/11 03:22:30;;;;;;;33.40;21.45;;;4.60;99.90;;;;;;5059490;28;20044;-72
2020/12/11 03:24:56;;;;;;;28.88;20.65;;;4.50;99.90;;;;;;5058180;28;20060;-72
2020/12/11 03:27:22;;;;;;;28.88;21.17;;;4.50;99.90;;;;;;5056936;28;20021;-71
2020/12/11 03:29:47;;;;;;;32.03;22.08;;;4.50;99.90;;;;;;5057380;28;20024;-71
2020/12/11 03:32:13;;;;;;;30.65;20.83;;;4.50;99.90;;;;;;5056503;28;20021;-72
2020/12/11 03:34:39;;;;;;;38.50;21.02;;;4.40;99.90;;;;;;5056769;28;20557;-71
2020/12/11 03:37:04;;;;;;;50.58;21.10;;;4.50;99.90;;;;;;5059421;28;20029;-72
2020/12/11 03:39:30;;;;;;;53.83;22.23;;;4.50;99.90;;;;;;5055940;28;20033;-72
2020/12/11 03:41:55;;;;;;;31.90;20.05;;;4.50;99.90;;;;;;5056535;28;20037;-72
2020/12/11 03:44:21;;;;;;;28.13;20.55;;;4.50;99.90;;;;;;5057329;28;20087;-71
2020/12/11 03:46:47;;;;;;;31.27;18.80;;;4.40;99.90;;;;;;5056020;28;20025;-72
2020/12/11 03:49:12;;;;;;;29.02;18.65;;;4.40;99.90;;;;;;5054460;28;20055;-71
2020/12/11 03:51:39;;;;;;;28.40;19.60;;;4.50;99.90;;;;;;5057479;28;20017;-71
2020/12/11 03:54:04;;;;;;;25.55;17.45;;;4.60;99.90;;;;;;5057965;28;20051;-71
2020/12/11 03:56:30;;;;;;;29.85;18.15;;;4.70;99.90;;;;;;5058204;28;20025;-72
2020/12/11 03:58:56;;;;;;;28.38;18.17;;;4.70;99.90;;;;;;5055749;28;20083;-71
2020/12/11 04:01:22;;;;;;;25.88;17.40;;;4.60;99.90;;;;;;5056809;28;20024;-71
2020/12/11 04:03:47;;;;;;;26.58;18.40;;;4.50;99.90;;;;;;5055388;28;20075;-71
2020/12/11 04:06:16;;;;;;;24.23;17.70;;;4.50;99.90;;;;;;5054186;28;20025;-71
2020/12/11 04:08:43;;;;;;;24.67;18.25;;;4.60;99.90;;;;;;5058044;28;20040;-71
2020/12/11 04:11:14;;;;;;;25.02;18.00;;;4.70;99.90;;;;;;5057839;28;20356;-71
2020/12/11 04:13:40;;;;;;;27.27;18.02;;;4.70;99.90;;;;;;5057646;28;20021;-71
2020/12/11 04:16:08;;;;;;;31.50;21.25;;;4.80;99.90;;;;;;5055764;28;20127;-71
2020/12/11 04:18:34;;;;;;;32.30;21.85;;;4.90;99.90;;;;;;5053993;28;20025;-71
2020/12/11 04:21:00;;;;;;;35.33;23.27;;;4.90;99.90;;;;;;5055718;28;20136;-72
2020/12/11 04:23:27;;;;;;;35.00;22.58;;;4.80;99.90;;;;;;5059268;28;20365;-72
2020/12/11 04:25:54;;;;;;;30.15;22.00;;;4.90;99.90;;;;;;5055133;28;20101;-71
2020/12/11 04:28:20;;;;;;;24.13;17.98;;;4.80;99.90;;;;;;5055639;28;20036;-72
2020/12/11 04:30:46;;;;;;;25.15;17.95;;;4.80;99.90;;;;;;5056699;28;20198;-72
2020/12/11 04:33:11;;;;;;;29.33;19.70;;;4.70;99.90;;;;;;5054201;28;20110;-72
2020/12/11 04:35:37;;;;;;;29.92;19.42;;;4.50;99.90;;;;;;5055115;28;20032;-71
2020/12/11 04:38:04;;;;;;;29.30;18.77;;;4.50;99.90;;;;;;5058361;28;20059;-71
2020/12/11 04:40:30;;;;;;;29.80;19.48;;;4.40;99.90;;;;;;5054887;28;20025;-71
2020/12/11 04:42:55;;;;;;;31.02;20.08;;;4.30;99.90;;;;;;5058243;28;20096;-72
2020/12/11 04:45:23;;;;;;;26.70;18.20;;;4.20;99.90;;;;;;5055688;28;20136;-71
2020/12/11 04:47:50;;;;;;;28.65;20.40;;;4.20;99.90;;;;;;5056232;28;20029;-72
2020/12/11 04:50:17;;;;;;;29.58;18.65;;;4.10;99.90;;;;;;5054027;28;20058;-71
2020/12/11 04:52:45;;;;;;;29.75;21.23;;;4.00;99.90;;;;;;5052889;28;20385;-71
2020/12/11 04:55:19;;;;;;;30.38;22.27;;;4.00;99.90;;;;;;5059244;28;20028;-71
2020/12/11 04:57:49;;;;;;;31.52;19.77;;;4.00;99.90;;;;;;5054871;28;20025;-71
2020/12/11 05:00:17;;;;;;;32.67;20.33;;;4.00;99.90;;;;;;5056633;28;20029;-71
2020/12/11 05:02:44;;;;;;;34.20;21.50;;;4.00;99.90;;;;;;5053781;28;20059;-71
2020/12/11 05:05:11;;;;;;;29.60;21.00;;;3.90;99.90;;;;;;5054304;28;20029;-71
2020/12/11 05:07:38;;;;;;;36.20;22.88;;;3.90;99.90;;;;;;5053777;28;20033;-76
2020/12/11 05:10:07;;;;;;;31.27;21.30;;;3.90;99.90;;;;;;5060473;28;20045;-71
2020/12/11 05:12:34;;;;;;;33.20;23.02;;;3.90;99.90;;;;;;5055477;28;20021;-71
2020/12/11 05:15:03;;;;;;;36.05;23.02;;;3.90;99.90;;;;;;5055316;28;20021;-72
2020/12/11 05:17:31;;;;;;;35.75;25.63;;;3.90;99.90;;;;;;5056346;28;20025;-72
2020/12/11 05:19:58;;;;;;;33.33;23.67;;;3.90;99.90;;;;;;5051546;28;20064;-72
2020/12/11 05:22:31;;;;;;;28.95;20.55;;;3.90;99.90;;;;;;5052121;28;20032;-71
2020/12/11 05:24:57;;;;;;;30.35;19.77;;;3.90;99.90;;;;;;5055634;28;20056;-71
2020/12/11 05:27:39;;;;;;;29.92;20.08;;;3.90;99.90;;;;;;5052807;28;20032;-71
2020/12/11 05:30:14;;;;;;;30.27;19.70;;;3.90;99.90;;;;;;5052911;28;20025;-71
2020/12/11 05:32:57;;;;;;;40.97;21.35;;;3.80;99.90;;;;;;5054920;28;20393;-71
2020/12/11 05:35:26;;;;;;;41.92;21.05;;;3.80;99.90;;;;;;5055644;28;20025;-71
2020/12/11 05:38:04;;;;;;;31.48;20.25;;;3.80;99.90;;;;;;5052227;28;20112;-71
2020/12/11 05:40:35;;;;;;;35.47;21.35;;;3.80;99.90;;;;;;5059057;28;20066;-70
2020/12/11 05:43:21;;;;;;;33.08;20.05;;;3.70;99.90;;;;;;5053194;28;20013;-71
2020/12/11 05:45:53;;;;;;;44.10;21.15;;;3.80;99.90;;;;;;5053229;28;20036;-71
2020/12/11 05:48:21;;;;;;;50.05;21.27;;;3.70;99.90;;;;;;5054917;28;20044;-71
2020/12/11 05:50:47;;;;;;;57.47;23.08;;;3.70;99.90;;;;;;5055625;28;20103;-70
2020/12/11 05:53:12;;;;;;;42.85;22.58;;;3.70;99.90;;;;;;5056328;28;20017;-71
2020/12/11 05:55:38;;;;;;;52.65;23.05;;;3.70;99.90;;;;;;5058280;28;20055;-71
2020/12/11 05:58:08;;;;;;;47.22;21.52;;;3.70;99.90;;;;;;5054822;28;20378;-72
2020/12/11 06:00:34;;;;;;;38.63;22.02;;;3.70;99.90;;;;;;5054082;28;20033;-71
2020/12/11 06:03:01;;;;;;;45.45;24.35;;;3.80;99.90;;;;;;5056189;28;20033;-71
2020/12/11 06:05:26;;;;;;;46.88;24.35;;;4.00;99.90;;;;;;5057959;28;20047;-72
2020/12/11 06:07:53;;;;;;;60.67;24.27;;;4.00;99.90;;;;;;5053814;28;20036;-70
2020/12/11 06:10:23;;;;;;;83.25;26.58;;;4.10;99.90;;;;;;5052720;28;20512;-72
2020/12/11 06:12:50;;;;;;;71.63;27.30;;;4.20;99.90;;;;;;5056052;28;20470;-69
2020/12/11 06:15:22;;;;;;;64.15;29.20;;;4.20;99.90;;;;;;5036121;28;20188;-71
2020/12/11 06:17:55;;;;;;;75.03;30.92;;;4.30;99.90;;;;;;5056015;28;20025;-71
2020/12/11 06:20:20;;;;;;;68.10;30.77;;;4.30;99.90;;;;;;5053639;28;20060;-70
2020/12/11 06:22:46;;;;;;;59.50;29.63;;;4.30;99.90;;;;;;5053969;28;20021;-71
2020/12/11 06:25:26;;;;;;;66.53;28.50;;;4.30;99.90;;;;;;5056173;28;20159;-71
2020/12/11 06:27:52;;;;;;;66.70;26.40;;;4.40;99.90;;;;;;5058255;28;20048;-70
2020/12/11 06:30:30;;;;;;;60.65;25.42;;;4.30;99.90;;;;;;5053207;28;20117;-71
2020/12/11 06:32:57;;;;;;;67.82;24.63;;;4.30;99.90;;;;;;5053277;28;20047;-71
2020/12/11 06:35:24;;;;;;;58.15;24.58;;;4.20;99.90;;;;;;5053549;28;20028;-71
2020/12/11 06:37:50;;;;;;;62.97;24.85;;;4.30;99.90;;;;;;5053241;28;20029;-70
2020/12/11 06:40:16;;;;;;;61.40;23.73;;;4.30;99.90;;;;;;5056549;28;20074;-71
2020/12/11 06:42:43;;;;;;;63.50;25.35;;;4.20;99.90;;;;;;5064401;28;20074;-71
2020/12/11 06:45:25;;;;;;;52.53;23.90;;;4.30;99.90;;;;;;5057876;28;20025;-71
2020/12/11 06:47:58;;;;;;;54.22;24.27;;;4.30;99.90;;;;;;5057332;28;20029;-72
2020/12/11 06:50:32;;;;;;;71.68;24.13;;;4.30;99.90;;;;;;5058336;28;20025;-71
2020/12/11 06:52:59;;;;;;;70.88;24.52;;;4.20;99.90;;;;;;5057188;28;20025;-72
2020/12/11 06:55:51;;;;;;;65.32;23.27;;;4.20;99.90;;;;;;5060248;28;20080;-70
2020/12/11 06:58:20;;;;;;;67.35;23.65;;;4.20;99.90;;;;;;5060227;28;20029;-71
2020/12/11 07:00:52;;;;;;;;;;;4.20;99.90;;;;;;5056690;28;20036;-72
2020/12/11 07:03:26;;;;;;;42.50;21.02;;;4.20;99.90;;;;;;5055873;28;19905;-71
2020/12/11 07:06:05;;;;;;;69.97;23.35;;;4.20;99.90;;;;;;5058624;28;20386;-70
2020/12/11 07:08:32;;;;;;;50.28;23.13;;;4.20;99.90;;;;;;5056876;28;20045;-70
2020/12/11 07:11:08;;;;;;;60.00;24.30;;;4.20;99.90;;;;;;5058535;28;20340;-71
2020/12/11 07:13:35;;;;;;;47.28;23.90;;;4.40;99.90;;;;;;5060219;28;20036;-69
2020/12/11 07:16:02;;;;;;;47.60;24.02;;;4.40;99.90;;;;;;5058217;28;20082;-70
2020/12/11 07:18:28;;;;;;;40.20;25.70;;;4.50;99.90;;;;;;5057050;28;20032;-71
2020/12/11 07:20:56;;;;;;;39.42;23.38;;;4.70;99.90;;;;;;5057652;28;20029;-70
2020/12/11 07:23:22;;;;;;;39.80;23.92;;;4.80;99.90;;;;;;5057491;28;20021;-72
2020/12/11 07:25:49;;;;;;;36.75;23.88;;;4.80;99.90;;;;;;5055719;28;20116;-70
2020/12/11 07:28:15;;;;;;;37.05;24.55;;;5.00;99.90;;;;;;5057199;28;20116;-71
2020/12/11 07:30:47;;;;;;;45.10;26.30;;;5.10;99.90;;;;;;5041686;28;20055;-70
2020/12/11 07:33:13;;;;;;;43.92;26.02;;;5.10;99.90;;;;;;5055739;28;20433;-71
2020/12/11 07:35:49;;;;;;;40.08;24.60;;;5.20;99.90;;;;;;5059072;28;20495;-70
2020/12/11 07:38:17;;;;;;;43.38;25.33;;;5.30;99.90;;;;;;5055288;28;20036;-71
2020/12/11 07:40:51;;;;;;;44.65;25.98;;;5.30;99.90;;;;;;5055567;28;20021;-70
2020/12/11 07:43:18;;;;;;;40.78;24.70;;;5.40;99.90;;;;;;5059798;28;20075;-70
2020/12/11 07:45:45;;;;;;;39.85;24.35;;;5.40;99.90;;;;;;5061785;28;20524;-70
2020/12/11 07:48:11;;;;;;;48.50;25.35;;;5.40;99.90;;;;;;5055395;28;20032;-70
2020/12/11 07:50:36;;;;;;;35.50;23.48;;;5.40;99.90;;;;;;5055921;28;20013;-72
2020/12/11 07:53:08;;;;;;;36.88;24.15;;;5.30;99.90;;;;;;5055505;28;20489;-70
2020/12/11 07:55:33;;;;;;;37.55;23.75;;;5.30;99.90;;;;;;5055920;28;20039;-71
2020/12/11 07:58:00;;;;;;;36.88;24.90;;;5.30;99.90;;;;;;5059541;28;20056;-72
2020/12/11 08:00:26;;;;;;;46.17;25.98;;;5.30;99.90;;;;;;5061351;28;20025;-71
2020/12/11 08:02:53;;;;;;;39.45;24.67;;;5.30;99.90;;;;;;5038043;28;20122;-70
2020/12/11 08:05:19;;;;;;;39.47;24.23;;;5.40;99.90;;;;;;5059180;28;20044;-72
2020/12/11 08:07:51;;;;;;;35.38;23.42;;;5.40;99.90;;;;;;5055745;28;20045;-70
2020/12/11 08:10:22;;;;;;;38.75;23.98;;;5.50;99.90;;;;;;5055640;28;20497;-71
2020/12/11 08:12:50;;;;;;;36.50;23.52;;;5.50;99.90;;;;;;5055723;28;20059;-70
2020/12/11 08:15:33;;;;;;;37.30;23.52;;;5.60;99.90;;;;;;5056468;28;20025;-70
2020/12/11 08:18:12;;;;;;;37.22;24.17;;;5.60;99.90;;;;;;5057995;28;20056;-72
2020/12/11 08:20:43;;;;;;;32.67;23.80;;;5.70;99.90;;;;;;5058939;28;20546;-72
2020/12/11 08:23:19;;;;;;;41.47;25.98;;;5.90;99.90;;;;;;5055731;28;20025;-71
2020/12/11 08:25:44;;;;;;;37.75;25.25;;;6.00;99.90;;;;;;5034256;28;20368;-71
2020/12/11 08:28:10;;;;;;;44.22;27.85;;;6.20;99.90;;;;;;5036305;28;20391;-71
2020/12/11 08:30:35;;;;;;;42.38;25.75;;;6.20;99.90;;;;;;5037767;28;20159;-70
2020/12/11 08:33:11;;;;;;;46.72;28.10;;;6.40;99.90;;;;;;5057344;28;20044;-70
2020/12/11 08:35:38;;;;;;;48.70;27.60;;;6.40;99.90;;;;;;5058223;28;20017;-70
2020/12/11 08:38:05;;;;;;;41.70;26.63;;;6.40;99.90;;;;;;5055724;28;20498;-71
2020/12/11 08:40:43;;;;;;;55.72;30.13;;;6.50;99.90;;;;;;5056337;28;20075;-70
2020/12/11 08:48:43;;;;;;;62.08;32.50;;;6.60;99.90;;;;;;5057887;28;20321;-71
2020/12/11 08:51:00;;;;;;;67.57;34.80;;;6.60;99.90;;;;;;5057332;28;20025;-71
2020/12/11 08:53:28;;;;;;;66.95;33.97;;;6.50;99.90;;;;;;5055319;28;20545;-72
2020/12/11 08:55:53;;;;;;;72.63;36.45;;;6.50;99.90;;;;;;5054674;28;20047;-70
2020/12/11 08:58:20;;;;;;;70.60;37.17;;;6.50;99.90;;;;;;5053826;28;20394;-71
2020/12/11 09:00:45;;;;;;;75.88;39.53;;;6.50;99.90;;;;;;5058573;28;20170;-71
2020/12/11 09:03:11;;;;;;;74.72;38.53;;;6.40;99.90;;;;;;5055427;28;20056;-70
2020/12/11 09:05:36;;;;;;;65.05;34.78;;;6.50;99.90;;;;;;5056977;28;20041;-71
2020/12/11 09:08:02;;;;;;;57.33;33.58;;;6.40;99.90;;;;;;5058413;28;20526;-71
2020/12/11 09:10:28;;;;;;;56.38;31.80;;;6.30;99.90;;;;;;5054963;28;20450;-70
2020/12/11 09:12:54;;;;;;;49.85;29.45;;;6.30;99.90;;;;;;5054464;28;20108;-71
2020/12/11 09:15:21;;;;;;;45.60;27.55;;;6.30;99.90;;;;;;5057287;28;20017;-70
2020/12/11 09:17:47;;;;;;;45.47;27.40;;;6.30;99.90;;;;;;5057910;28;20071;-70
2020/12/11 09:20:13;;;;;;;47.22;28.77;;;6.30;99.90;;;;;;5052937;28;20566;-71
2020/12/11 09:22:39;;;;;;;42.00;25.08;;;6.30;99.90;;;;;;5057988;28;20079;-71
2020/12/11 09:25:05;;;;;;;42.05;24.50;;;6.30;99.90;;;;;;5056360;28;20074;-70
2020/12/11 09:27:31;;;;;;;37.40;22.90;;;6.30;99.90;;;;;;5053963;28;20025;-71
2020/12/11 09:30:13;;;;;;;35.75;22.90;;;6.40;99.90;;;;;;5058726;28;20092;-71
2020/12/11 09:35:19;;;;;;;43.95;25.10;;;6.50;99.90;;;;;;5055630;28;20029;-67
2020/12/11 09:37:49;;;;;;;42.65;25.63;;;6.50;99.90;;;;;;5054133;28;20036;-67
2020/12/11 09:40:17;;;;;;;41.00;24.92;;;6.60;99.90;;;;;;5054316;28;20104;-67
2020/12/11 09:42:55;;;;;;;41.80;24.88;;;6.70;99.90;;;;;;5052911;28;20029;-68
2020/12/11 09:45:44;;;;;;;44.30;25.60;;;6.70;99.90;;;;;;5057535;28;20059;-67
2020/12/11 09:55:37;;;;;;;46.42;26.40;;;7.00;99.90;;;;;;5055675;28;20044;-70
2020/12/11 09:58:03;;;;;;;42.33;25.63;;;7.00;99.90;;;;;;5053832;28;20029;-71
2020/12/11 10:00:29;;;;;;;41.13;24.38;;;7.00;99.90;;;;;;5057379;28;20520;-70
2020/12/11 10:03:06;;;;;;;37.72;24.38;;;7.10;99.90;;;;;;5054398;28;20021;-71
2020/12/11 10:05:32;;;;;;;45.50;25.90;;;7.10;99.90;;;;;;5057184;28;20108;-71
2020/12/11 10:07:58;;;;;;;53.97;34.42;;;7.20;99.90;;;;;;5054476;28;20130;-70
2020/12/11 10:10:23;;;;;;;53.97;32.88;;;7.20;99.90;;;;;;5053974;28;20028;-70
2020/12/11 10:12:50;;;;;;;43.55;26.73;;;7.30;99.90;;;;;;5054082;28;20490;-70
2020/12/11 10:15:20;;;;;;;45.95;26.73;;;7.30;99.90;;;;;;5057220;28;20020;-70
2020/12/11 10:17:47;;;;;;;43.05;26.67;;;7.30;99.90;;;;;;5056529;28;20229;-71
2020/12/11 10:20:19;;;;;;;43.33;24.77;;;7.40;99.90;;;;;;5060098;28;20087;-71
2020/12/11 10:22:47;;;;;;;42.90;27.13;;;7.40;99.90;;;;;;5058754;28;20029;-71
2020/12/11 10:25:13;;;;;;;44.03;26.02;;;7.40;99.90;;;;;;5056856;28;20051;-70
2020/12/11 10:27:38;;;;;;;43.03;25.25;;;7.40;99.90;;;;;;5058510;28;20407;-70
2020/12/11 10:30:04;;;;;;;43.88;26.73;;;7.50;99.90;;;;;;5059581;28;20052;-70
2020/12/11 10:32:29;;;;;;;46.58;27.13;;;7.50;99.90;;;;;;5058807;28;20029;-71
2020/12/11 10:34:55;;;;;;;43.90;27.23;;;7.50;99.90;;;;;;5060810;28;20040;-71
2020/12/11 10:37:21;;;;;;;46.63;27.20;;;7.60;99.90;;;;;;5039913;28;20028;-70
2020/12/11 10:39:47;;;;;;;41.60;27.77;;;7.60;99.90;;;;;;5058999;28;20402;-70
2020/12/11 10:42:13;;;;;;;44.25;26.92;;;7.60;99.90;;;;;;5056172;28;20052;-71
2020/12/11 10:44:38;;;;;;;45.40;28.17;;;7.60;99.90;;;;;;5058942;28;20382;-70
2020/12/11 10:47:04;;;;;;;45.55;27.77;;;7.60;99.90;;;;;;5059425;28;20025;-71
2020/12/11 10:49:29;;;;;;;46.17;28.50;;;7.60;99.90;;;;;;5056838;28;20036;-70
2020/12/11 10:51:55;;;;;;;43.75;28.02;;;7.60;99.90;;;;;;5058937;28;20013;-70
2020/12/11 10:54:26;;;;;;;43.25;26.25;;;7.60;99.90;;;;;;5056175;28;20025;-71
2020/12/11 10:56:52;;;;;;;46.83;27.95;;;7.60;99.90;;;;;;5057541;28;20013;-70
2020/12/11 10:59:18;;;;;;;48.03;28.10;;;7.60;99.90;;;;;;5057580;28;20090;-70
2020/12/11 11:01:43;;;;;;;46.50;27.70;;;7.60;99.90;;;;;;5059411;28;20028;-70
2020/12/11 11:04:09;;;;;;;51.45;28.83;;;7.60;99.90;;;;;;5057863;28;20033;-71
2020/12/11 11:11:41;;;;;;;45.42;29.35;;;7.70;99.90;;;;;;5057902;28;20074;-70
2020/12/11 11:25:08;;;;;;;50.22;28.92;;;7.70;99.90;;;;;;5058540;28;20029;-70
2020/12/11 11:29:52;;;;;;;46.00;27.83;;;7.70;99.90;;;;;;5056676;28;20112;-70
2020/12/11 11:32:18;;;;;;;45.35;28.75;;;7.70;99.90;;;;;;5057005;28;20024;-71
2020/12/11 11:34:43;;;;;;;45.72;29.40;;;7.70;99.90;;;;;;5056380;28;20017;-70
2020/12/11 11:37:09;;;;;;;42.58;28.58;;;7.70;99.90;;;;;;5060065;28;20340;-71
2020/12/11 11:39:35;;;;;;;42.85;28.75;;;7.70;99.90;;;;;;5059591;28;20473;-71
2020/12/11 11:42:01;;;;;;;40.72;26.85;;;7.70;99.90;;;;;;5057442;28;20020;-70
2020/12/11 11:46:55;;;;;;;44.77;27.63;;;7.60;99.90;;;;;;5057300;28;20037;-71
2020/12/11 11:52:17;;;;;;;42.22;27.95;;;7.80;99.90;;;;;;5057524;28;20037;-71
2020/12/11 11:54:43;;;;;;;39.10;26.45;;;7.80;99.90;;;;;;5055774;28;20075;-71
2020/12/11 11:57:09;;;;;;;40.50;26.90;;;7.90;99.90;;;;;;5061335;28;20037;-71
2020/12/11 11:59:34;;;;;;;39.70;27.13;;;7.90;99.90;;;;;;5056712;28;20045;-71
2020/12/11 12:02:00;;;;;;;47.00;29.77;;;7.90;99.90;;;;;;5055816;28;20017;-70
2020/12/11 12:04:26;;;;;;;79.68;51.13;;;7.90;99.90;;;;;;5064317;28;20029;-71
2020/12/11 12:06:51;;;;;;;49.08;31.08;;;8.00;99.90;;;;;;5058106;28;20025;-71
2020/12/11 12:09:18;;;;;;;43.55;27.77;;;8.00;99.90;;;;;;5057594;28;20062;-70
2020/12/11 12:11:44;;;;;;;44.80;28.38;;;7.90;99.90;;;;;;5055103;28;20407;-71
2020/12/11 12:14:10;;;;;;;44.10;27.65;;;8.00;99.90;;;;;;5055868;28;20025;-71
2020/12/11 12:16:37;;;;;;;40.83;28.15;;;8.00;99.90;;;;;;5056652;28;20029;-70
2020/12/11 12:19:03;;;;;;;44.55;29.55;;;8.10;99.90;;;;;;5059495;28;20108;-70
2020/12/11 12:29:22;;;;;;;43.13;28.30;;;8.10;99.90;;;;;;5055318;28;20633;-71
2020/12/11 12:31:53;;;;;;;41.75;28.98;;;8.10;99.90;;;;;;5055783;28;20057;-71
2020/12/11 12:39:34;;;;;;;45.63;28.58;;;8.20;99.90;;;;;;5056590;28;20029;-71
2020/12/11 12:44:40;;;;;;;47.95;29.67;;;8.30;99.90;;;;;;5054754;28;20332;-71
2020/12/11 12:47:06;;;;;;;45.83;29.00;;;8.30;99.90;;;;;;5055435;28;20505;-70
2020/12/11 12:49:32;;;;;;;41.67;27.92;;;8.40;99.90;;;;;;5065760;28;20025;-70
2020/12/11 12:51:57;;;;;;;42.22;28.25;;;8.50;99.90;;;;;;5055299;28;20459;-70
2020/12/11 12:54:24;;;;;;;42.72;28.50;;;8.50;99.90;;;;;;5057188;28;20021;-70
2020/12/11 12:56:54;;;;;;;41.30;27.38;;;8.60;99.90;;;;;;5057782;28;20104;-70
2020/12/11 13:02:26;;;;;;;42.45;28.60;;;8.60;99.90;;;;;;5055213;28;20029;-70
2020/12/11 13:05:05;;;;;;;42.83;28.48;;;8.60;99.90;;;;;;5057277;28;20031;-70
2020/12/11 13:07:31;;;;;;;42.33;28.25;;;8.60;99.90;;;;;;5055054;28;20040;-71
2020/12/11 13:09:58;;;;;;;43.10;29.15;;;8.60;99.90;;;;;;5055051;28;20017;-70
2020/12/11 13:12:24;;;;;;;40.90;28.23;;;8.60;99.90;;;;;;5056267;28;20116;-70
2020/12/11 13:14:50;;;;;;;45.80;30.02;;;8.60;99.90;;;;;;5036933;28;20067;-70
2020/12/11 13:17:16;;;;;;;44.90;28.92;;;8.50;99.90;;;;;;5054850;28;20380;-70
2020/12/11 13:19:42;;;;;;;43.63;27.63;;;8.50;99.90;;;;;;5056353;28;20040;-70
2020/12/11 13:27:36;;;;;;;39.42;26.95;;;8.50;99.90;;;;;;5057153;28;20454;-71
2020/12/11 13:30:03;;;;;;;43.20;27.67;;;8.50;99.90;;;;;;5055474;28;20459;-70
2020/12/11 13:32:30;;;;;;;43.00;26.50;;;8.50;99.90;;;;;;5054441;28;20051;-70
2020/12/11 13:34:56;;;;;;;37.92;27.02;;;8.40;99.90;;;;;;5057693;28;20028;-70
2020/12/11 13:37:22;;;;;;;43.33;27.45;;;8.40;99.90;;;;;;5052701;28;20045;-71
2020/12/11 13:39:48;;;;;;;40.03;26.42;;;8.40;99.90;;;;;;5058500;28;20459;-70
2020/12/11 13:42:14;;;;;;;41.25;27.92;;;8.40;99.90;;;;;;5059190;28;20043;-70
2020/12/11 13:44:40;;;;;;;41.25;28.73;;;8.40;99.90;;;;;;5057457;28;20028;-70